sensor_id;sensor_type;location;lat;lon;timestamp;P1;durP1;ratioP1;P2;durP2;ratioP2
7003;SDS011;3542;48.812;9.146;2023-05-15T00:00:14;6.17;;;4.80;;
7003;SDS011;3542;48.812;9.146;2023-05-15T00:02:40;5.73;;;5.13;;
7003;SDS011;3542;48.812;9.146;2023-05-15T00:05:07;5.60;;;5.10;;
7003;SDS011;3542;48.812;9.146;2023-05-15T00:07:33;11.63;;;6.87;;
7003;SDS011;3542;48.812;9.146;2023-05-15T00:09:59;5.63;;;5.17;;
7003;SDS011;3542;48.812;9.146;2023-05-15T00:12:24;5.67;;;5.17;;
7003;SDS011;3542;48.812;9.146;2023-05-15T00:14:50;6.80;;;6.17;;
7003;SDS011;3542;48.812;9.146;2023-05-15T00:17:16;6.07;;;5.27;;
7003;SDS011;3542;48.812;9.146;2023-05-15T00:19:41;6.73;;;6.03;;
7003;SDS011;3542;48.812;9.146;2023-05-15T00:22:07;6.07;;;5.30;;
7003;SDS011;3542;48.812;9.146;2023-05-15T00:24:33;6.53;;;5.87;;
7003;SDS011;3542;48.812;9.146;2023-05-15T00:26:59;6.10;;;5.53;;
7003;SDS011;3542;48.812;9.146;2023-05-15T00:29:25;6.00;;;4.83;;
7003;SDS011;3542;48.812;9.146;2023-05-15T00:31:50;5.43;;;5.03;;
7003;SDS011;3542;48.812;9.146;2023-05-15T00:34:16;7.20;;;5.40;;
7003;SDS011;3542;48.812;9.146;2023-05-15T00:36:42;7.33;;;5.73;;
7003;SDS011;3542;48.812;9.146;2023-05-15T00:39:08;9.93;;;5.77;;
7003;SDS011;3542;48.812;9.146;2023-05-15T00:41:33;6.17;;;5.37;;
7003;SDS011;3542;48.812;9.146;2023-05-15T00:44:00;5.20;;;4.70;;
7003;SDS011;3542;48.812;9.146;2023-05-15T00:46:30;5.60;;;5.10;;
7003;SDS011;3542;48.812;9.146;2023-05-15T00:48:56;5.80;;;5.30;;
7003;SDS011;3542;48.812;9.146;2023-05-15T00:51:23;6.47;;;5.97;;
7003;SDS011;3542;48.812;9.146;2023-05-15T00:53:50;4.53;;;4.13;;
7003;SDS011;3542;48.812;9.146;2023-05-15T00:56:16;5.20;;;4.70;;
7003;SDS011;3542;48.812;9.146;2023-05-15T00:58:42;6.13;;;4.73;;
7003;SDS011;3542;48.812;9.146;2023-05-15T02:37:37;5.53;;;5.13;;
7003;SDS011;3542;48.812;9.146;2023-05-15T02:40:07;6.33;;;5.70;;
7003;SDS011;3542;48.812;9.146;2023-05-15T02:42:35;6.90;;;6.00;;
7003;SDS011;3542;48.812;9.146;2023-05-15T02:45:02;6.70;;;6.00;;
7003;SDS011;3542;48.812;9.146;2023-05-15T02:47:29;11.97;;;5.63;;
7003;SDS011;3542;48.812;9.146;2023-05-15T02:49:57;7.53;;;6.23;;
7003;SDS011;3542;48.812;9.146;2023-05-15T02:52:23;6.67;;;6.07;;
7003;SDS011;3542;48.812;9.146;2023-05-15T02:54:49;6.57;;;5.83;;
7003;SDS011;3542;48.812;9.146;2023-05-15T02:57:14;6.60;;;5.90;;
7003;SDS011;3542;48.812;9.146;2023-05-15T02:59:40;8.77;;;5.67;;
7003;SDS011;3542;48.812;9.146;2023-05-15T03:02:05;7.93;;;5.70;;
7003;SDS011;3542;48.812;9.146;2023-05-15T03:04:31;6.57;;;5.57;;
7003;SDS011;3542;48.812;9.146;2023-05-15T03:06:56;5.70;;;5.23;;
7003;SDS011;3542;48.812;9.146;2023-05-15T03:09:25;10.20;;;5.90;;
7003;SDS011;3542;48.812;9.146;2023-05-15T03:11:50;7.17;;;6.27;;
7003;SDS011;3542;48.812;9.146;2023-05-15T03:14:16;7.37;;;6.67;;
7003;SDS011;3542;48.812;9.146;2023-05-15T03:16:41;7.10;;;6.43;;
7003;SDS011;3542;48.812;9.146;2023-05-15T03:19:10;6.83;;;6.20;;
7003;SDS011;3542;48.812;9.146;2023-05-15T03:21:35;6.33;;;5.83;;
7003;SDS011;3542;48.812;9.146;2023-05-15T03:24:00;6.67;;;5.90;;
7003;SDS011;3542;48.812;9.146;2023-05-15T03:26:26;7.27;;;6.57;;
7003;SDS011;3542;48.812;9.146;2023-05-15T03:28:52;7.73;;;7.03;;
7003;SDS011;3542;48.812;9.146;2023-05-15T03:31:17;7.13;;;6.30;;
7003;SDS011;3542;48.812;9.146;2023-05-15T03:33:43;7.13;;;6.43;;
7003;SDS011;3542;48.812;9.146;2023-05-15T03:36:13;6.80;;;6.20;;
7003;SDS011;3542;48.812;9.146;2023-05-15T03:38:39;7.80;;;5.73;;
7003;SDS011;3542;48.812;9.146;2023-05-15T03:41:05;8.80;;;5.13;;
7003;SDS011;3542;48.812;9.146;2023-05-15T03:43:30;6.03;;;5.30;;
7003;SDS011;3542;48.812;9.146;2023-05-15T03:45:57;5.90;;;5.30;;
7003;SDS011;3542;48.812;9.146;2023-05-15T03:48:23;6.00;;;5.40;;
7003;SDS011;3542;48.812;9.146;2023-05-15T03:50:48;7.03;;;6.43;;
7003;SDS011;3542;48.812;9.146;2023-05-15T03:53:15;7.10;;;6.40;;
7003;SDS011;3542;48.812;9.146;2023-05-15T03:55:40;7.00;;;6.30;;
7003;SDS011;3542;48.812;9.146;2023-05-15T03:58:06;8.00;;;6.00;;
7003;SDS011;3542;48.812;9.146;2023-05-15T04:00:31;6.70;;;5.87;;
7003;SDS011;3542;48.812;9.146;2023-05-15T04:02:57;11.20;;;5.33;;
7003;SDS011;3542;48.812;9.146;2023-05-15T04:05:22;7.57;;;6.00;;
7003;SDS011;3542;48.812;9.146;2023-05-15T04:07:48;6.23;;;5.70;;
7003;SDS011;3542;48.812;9.146;2023-05-15T04:10:13;10.00;;;6.37;;
7003;SDS011;3542;48.812;9.146;2023-05-15T04:12:39;6.90;;;6.10;;
7003;SDS011;3542;48.812;9.146;2023-05-15T04:17:43;7.83;;;6.80;;
7003;SDS011;3542;48.812;9.146;2023-05-15T04:20:10;6.33;;;5.83;;
7003;SDS011;3542;48.812;9.146;2023-05-15T04:22:38;5.77;;;5.23;;
7003;SDS011;3542;48.812;9.146;2023-05-15T04:25:03;6.60;;;6.00;;
7003;SDS011;3542;48.812;9.146;2023-05-15T04:27:29;8.03;;;7.20;;
7003;SDS011;3542;48.812;9.146;2023-05-15T04:29:55;6.07;;;5.57;;
7003;SDS011;3542;48.812;9.146;2023-05-15T04:32:20;7.00;;;6.30;;
7003;SDS011;3542;48.812;9.146;2023-05-15T04:34:46;5.70;;;5.17;;
7003;SDS011;3542;48.812;9.146;2023-05-15T04:37:11;6.90;;;6.20;;
7003;SDS011;3542;48.812;9.146;2023-05-15T04:39:40;7.10;;;6.40;;
7003;SDS011;3542;48.812;9.146;2023-05-15T04:42:05;6.77;;;6.07;;
7003;SDS011;3542;48.812;9.146;2023-05-15T04:44:31;6.87;;;6.27;;
7003;SDS011;3542;48.812;9.146;2023-05-15T04:47:00;6.90;;;6.20;;
7003;SDS011;3542;48.812;9.146;2023-05-15T04:49:25;7.30;;;6.60;;
7003;SDS011;3542;48.812;9.146;2023-05-15T04:51:51;7.10;;;6.33;;
7003;SDS011;3542;48.812;9.146;2023-05-15T04:54:19;8.00;;;7.20;;
7003;SDS011;3542;48.812;9.146;2023-05-15T04:56:45;10.33;;;9.30;;
7003;SDS011;3542;48.812;9.146;2023-05-15T04:59:10;8.30;;;6.77;;
7003;SDS011;3542;48.812;9.146;2023-05-15T05:01:40;11.00;;;7.20;;
7003;SDS011;3542;48.812;9.146;2023-05-15T05:04:05;7.90;;;7.10;;
7003;SDS011;3542;48.812;9.146;2023-05-15T05:06:31;12.70;;;7.23;;
7003;SDS011;3542;48.812;9.146;2023-05-15T05:08:59;7.63;;;6.67;;
7003;SDS011;3542;48.812;9.146;2023-05-15T05:11:25;7.37;;;6.43;;
7003;SDS011;3542;48.812;9.146;2023-05-15T05:13:50;7.57;;;6.20;;
7003;SDS011;3542;48.812;9.146;2023-05-15T05:16:16;7.20;;;6.50;;
7003;SDS011;3542;48.812;9.146;2023-05-15T05:18:43;6.53;;;5.93;;
7003;SDS011;3542;48.812;9.146;2023-05-15T05:21:08;8.43;;;6.17;;
7003;SDS011;3542;48.812;9.146;2023-05-15T05:23:34;12.10;;;7.17;;
7003;SDS011;3542;48.812;9.146;2023-05-15T05:26:00;16.03;;;6.70;;
7003;SDS011;3542;48.812;9.146;2023-05-15T05:28:25;7.10;;;6.50;;
7003;SDS011;3542;48.812;9.146;2023-05-15T05:30:51;5.53;;;5.00;;
7003;SDS011;3542;48.812;9.146;2023-05-15T05:33:16;6.50;;;5.90;;
7003;SDS011;3542;48.812;9.146;2023-05-15T05:35:42;5.70;;;5.20;;
7003;SDS011;3542;48.812;9.146;2023-05-15T05:38:07;6.50;;;5.97;;
7003;SDS011;3542;48.812;9.146;2023-05-15T05:40:36;9.97;;;4.77;;
7003;SDS011;3542;48.812;9.146;2023-05-15T05:43:02;5.60;;;5.13;;
7003;SDS011;3542;48.812;9.146;2023-05-15T05:45:28;6.33;;;5.60;;
7003;SDS011;3542;48.812;9.146;2023-05-15T05:47:54;7.60;;;5.67;;
7003;SDS011;3542;48.812;9.146;2023-05-15T05:50:20;6.07;;;5.47;;
7003;SDS011;3542;48.812;9.146;2023-05-15T05:52:46;6.63;;;6.03;;
7003;SDS011;3542;48.812;9.146;2023-05-15T05:55:11;7.33;;;5.90;;
7003;SDS011;3542;48.812;9.146;2023-05-15T05:57:37;7.40;;;6.20;;
7003;SDS011;3542;48.812;9.146;2023-05-15T06:00:02;6.73;;;6.23;;
7003;SDS011;3542;48.812;9.146;2023-05-15T06:02:32;6.77;;;6.17;;
7003;SDS011;3542;48.812;9.146;2023-05-15T06:05:02;13.40;;;6.50;;
7003;SDS011;3542;48.812;9.146;2023-05-15T06:07:27;7.20;;;5.83;;
7003;SDS011;3542;48.812;9.146;2023-05-15T06:09:53;11.23;;;6.47;;
7003;SDS011;3542;48.812;9.146;2023-05-15T06:12:18;6.97;;;6.27;;
7003;SDS011;3542;48.812;9.146;2023-05-15T06:14:44;7.03;;;6.43;;
7003;SDS011;3542;48.812;9.146;2023-05-15T06:17:10;7.17;;;6.47;;
7003;SDS011;3542;48.812;9.146;2023-05-15T06:19:35;6.73;;;6.10;;
7003;SDS011;3542;48.812;9.146;2023-05-15T06:22:01;6.40;;;5.83;;
7003;SDS011;3542;48.812;9.146;2023-05-15T06:24:26;10.00;;;5.70;;
7003;SDS011;3542;48.812;9.146;2023-05-15T06:26:52;6.27;;;5.77;;
7003;SDS011;3542;48.812;9.146;2023-05-15T06:29:18;5.50;;;5.10;;
7003;SDS011;3542;48.812;9.146;2023-05-15T06:31:43;6.00;;;5.50;;
7003;SDS011;3542;48.812;9.146;2023-05-15T06:34:11;5.40;;;4.90;;
7003;SDS011;3542;48.812;9.146;2023-05-15T06:36:37;5.83;;;5.20;;
7003;SDS011;3542;48.812;9.146;2023-05-15T06:39:02;6.10;;;4.77;;
7003;SDS011;3542;48.812;9.146;2023-05-15T06:41:32;5.03;;;4.57;;
7003;SDS011;3542;48.812;9.146;2023-05-15T06:43:57;4.87;;;4.37;;
7003;SDS011;3542;48.812;9.146;2023-05-15T06:46:23;6.97;;;5.60;;
7003;SDS011;3542;48.812;9.146;2023-05-15T06:48:51;6.27;;;4.57;;
7003;SDS011;3542;48.812;9.146;2023-05-15T06:51:17;4.97;;;4.57;;
7003;SDS011;3542;48.812;9.146;2023-05-15T06:53:42;8.80;;;4.57;;
7003;SDS011;3542;48.812;9.146;2023-05-15T06:56:08;5.00;;;4.40;;
7003;SDS011;3542;48.812;9.146;2023-05-15T06:58:36;5.17;;;4.87;;
7003;SDS011;3542;48.812;9.146;2023-05-15T07:01:02;4.67;;;4.27;;
7003;SDS011;3542;48.812;9.146;2023-05-15T07:03:28;5.33;;;3.80;;
7003;SDS011;3542;48.812;9.146;2023-05-15T07:05:54;5.13;;;3.90;;
7003;SDS011;3542;48.812;9.146;2023-05-15T07:08:20;5.27;;;4.87;;
7003;SDS011;3542;48.812;9.146;2023-05-15T07:10:47;5.17;;;4.13;;
7003;SDS011;3542;48.812;9.146;2023-05-15T07:13:18;4.73;;;3.93;;
7003;SDS011;3542;48.812;9.146;2023-05-15T07:15:44;4.47;;;4.17;;
7003;SDS011;3542;48.812;9.146;2023-05-15T07:18:10;4.00;;;3.70;;
7003;SDS011;3542;48.812;9.146;2023-05-15T07:20:36;3.80;;;3.50;;
7003;SDS011;3542;48.812;9.146;2023-05-15T07:23:01;3.40;;;3.20;;
7003;SDS011;3542;48.812;9.146;2023-05-15T07:25:27;3.47;;;3.27;;
7003;SDS011;3542;48.812;9.146;2023-05-15T07:27:55;4.40;;;4.20;;
7003;SDS011;3542;48.812;9.146;2023-05-15T07:30:21;3.80;;;3.60;;
7003;SDS011;3542;48.812;9.146;2023-05-15T07:32:47;6.40;;;4.37;;
7003;SDS011;3542;48.812;9.146;2023-05-15T07:35:14;4.17;;;3.77;;
7003;SDS011;3542;48.812;9.146;2023-05-15T07:37:40;4.73;;;4.33;;
7003;SDS011;3542;48.812;9.146;2023-05-15T07:40:05;4.07;;;3.67;;
7003;SDS011;3542;48.812;9.146;2023-05-15T07:42:31;3.97;;;3.67;;
7003;SDS011;3542;48.812;9.146;2023-05-15T07:44:57;4.17;;;3.87;;
7003;SDS011;3542;48.812;9.146;2023-05-15T07:47:22;4.17;;;3.77;;
7003;SDS011;3542;48.812;9.146;2023-05-15T07:49:48;4.40;;;3.87;;
7003;SDS011;3542;48.812;9.146;2023-05-15T07:52:13;4.40;;;3.73;;
7003;SDS011;3542;48.812;9.146;2023-05-15T07:54:39;3.27;;;3.07;;
7003;SDS011;3542;48.812;9.146;2023-05-15T07:57:07;3.40;;;3.10;;
7003;SDS011;3542;48.812;9.146;2023-05-15T07:59:33;2.67;;;2.53;;
7003;SDS011;3542;48.812;9.146;2023-05-15T08:01:59;3.90;;;3.47;;
7003;SDS011;3542;48.812;9.146;2023-05-15T08:04:25;4.17;;;3.77;;
7003;SDS011;3542;48.812;9.146;2023-05-15T08:06:50;3.80;;;3.50;;
7003;SDS011;3542;48.812;9.146;2023-05-15T08:09:16;3.40;;;3.17;;
7003;SDS011;3542;48.812;9.146;2023-05-15T08:11:42;3.43;;;3.10;;
7003;SDS011;3542;48.812;9.146;2023-05-15T08:14:07;5.80;;;2.70;;
7003;SDS011;3542;48.812;9.146;2023-05-15T08:16:33;3.43;;;3.23;;
7003;SDS011;3542;48.812;9.146;2023-05-15T08:18:59;3.77;;;3.47;;
7003;SDS011;3542;48.812;9.146;2023-05-15T08:21:28;3.50;;;3.30;;
7003;SDS011;3542;48.812;9.146;2023-05-15T08:23:54;3.13;;;2.93;;
7003;SDS011;3542;48.812;9.146;2023-05-15T08:26:20;2.97;;;2.87;;
7003;SDS011;3542;48.812;9.146;2023-05-15T08:28:46;3.37;;;3.07;;
7003;SDS011;3542;48.812;9.146;2023-05-15T08:31:12;3.20;;;2.67;;
7003;SDS011;3542;48.812;9.146;2023-05-15T08:33:37;3.00;;;2.70;;
7003;SDS011;3542;48.812;9.146;2023-05-15T08:36:03;3.00;;;2.80;;
7003;SDS011;3542;48.812;9.146;2023-05-15T08:38:28;4.83;;;3.10;;
7003;SDS011;3542;48.812;9.146;2023-05-15T08:40:55;2.63;;;2.43;;
7003;SDS011;3542;48.812;9.146;2023-05-15T08:43:22;3.30;;;3.00;;
7003;SDS011;3542;48.812;9.146;2023-05-15T08:45:50;3.20;;;3.00;;
7003;SDS011;3542;48.812;9.146;2023-05-15T08:48:17;2.90;;;2.80;;
7003;SDS011;3542;48.812;9.146;2023-05-15T08:50:44;2.73;;;2.63;;
7003;SDS011;3542;48.812;9.146;2023-05-15T08:53:11;3.10;;;2.90;;
7003;SDS011;3542;48.812;9.146;2023-05-15T08:55:37;2.97;;;2.77;;
7003;SDS011;3542;48.812;9.146;2023-05-15T08:58:03;4.93;;;3.00;;
7003;SDS011;3542;48.812;9.146;2023-05-15T09:00:29;4.80;;;3.23;;
7003;SDS011;3542;48.812;9.146;2023-05-15T09:02:59;3.37;;;3.17;;
7003;SDS011;3542;48.812;9.146;2023-05-15T09:05:31;3.90;;;3.60;;
7003;SDS011;3542;48.812;9.146;2023-05-15T09:07:58;3.63;;;3.10;;
7003;SDS011;3542;48.812;9.146;2023-05-15T09:10:26;3.27;;;3.10;;
7003;SDS011;3542;48.812;9.146;2023-05-15T09:12:53;3.97;;;3.60;;
7003;SDS011;3542;48.812;9.146;2023-05-15T09:15:19;3.70;;;3.50;;
7003;SDS011;3542;48.812;9.146;2023-05-15T09:17:48;9.60;;;3.70;;
7003;SDS011;3542;48.812;9.146;2023-05-15T09:23:00;3.60;;;3.30;;
7003;SDS011;3542;48.812;9.146;2023-05-15T09:25:34;5.90;;;3.17;;
7003;SDS011;3542;48.812;9.146;2023-05-15T09:28:08;8.17;;;3.27;;
7003;SDS011;3542;48.812;9.146;2023-05-15T09:30:48;7.50;;;3.70;;
7003;SDS011;3542;48.812;9.146;2023-05-15T09:33:15;2.33;;;2.23;;
7003;SDS011;3542;48.812;9.146;2023-05-15T09:35:41;6.73;;;3.13;;
7003;SDS011;3542;48.812;9.146;2023-05-15T09:38:10;2.93;;;2.73;;
7003;SDS011;3542;48.812;9.146;2023-05-15T09:40:39;4.87;;;3.10;;
7003;SDS011;3542;48.812;9.146;2023-05-15T09:43:05;4.00;;;2.90;;
7003;SDS011;3542;48.812;9.146;2023-05-15T09:45:33;3.63;;;2.47;;
7003;SDS011;3542;48.812;9.146;2023-05-15T09:47:59;2.93;;;2.60;;
7003;SDS011;3542;48.812;9.146;2023-05-15T09:50:35;3.30;;;3.10;;
7003;SDS011;3542;48.812;9.146;2023-05-15T09:53:02;2.93;;;2.73;;
7003;SDS011;3542;48.812;9.146;2023-05-15T09:55:32;3.37;;;3.17;;
7003;SDS011;3542;48.812;9.146;2023-05-15T09:58:05;3.83;;;3.43;;
7003;SDS011;3542;48.812;9.146;2023-05-15T10:00:33;6.40;;;3.60;;
7003;SDS011;3542;48.812;9.146;2023-05-15T10:03:02;5.50;;;3.40;;
7003;SDS011;3542;48.812;9.146;2023-05-15T10:05:30;3.60;;;3.30;;
7003;SDS011;3542;48.812;9.146;2023-05-15T10:07:56;3.20;;;3.00;;
7003;SDS011;3542;48.812;9.146;2023-05-15T10:10:23;3.37;;;3.07;;
7003;SDS011;3542;48.812;9.146;2023-05-15T10:12:50;3.40;;;3.20;;
7003;SDS011;3542;48.812;9.146;2023-05-15T10:15:17;5.50;;;3.53;;
7003;SDS011;3542;48.812;9.146;2023-05-15T10:17:45;3.27;;;3.07;;
7003;SDS011;3542;48.812;9.146;2023-05-15T10:20:12;5.60;;;3.30;;
7003;SDS011;3542;48.812;9.146;2023-05-15T10:22:40;3.23;;;2.93;;
7003;SDS011;3542;48.812;9.146;2023-05-15T10:25:14;2.97;;;2.77;;
7003;SDS011;3542;48.812;9.146;2023-05-15T10:27:45;5.90;;;3.23;;
7003;SDS011;3542;48.812;9.146;2023-05-15T10:30:11;2.77;;;2.57;;
7003;SDS011;3542;48.812;9.146;2023-05-15T10:32:40;5.23;;;3.37;;
7003;SDS011;3542;48.812;9.146;2023-05-15T10:35:08;2.90;;;2.60;;
7003;SDS011;3542;48.812;9.146;2023-05-15T10:37:35;8.70;;;2.20;;
7003;SDS011;3542;48.812;9.146;2023-05-15T10:40:04;2.17;;;2.07;;
7003;SDS011;3542;48.812;9.146;2023-05-15T10:42:32;2.77;;;2.53;;
7003;SDS011;3542;48.812;9.146;2023-05-15T10:45:00;2.70;;;2.50;;
7003;SDS011;3542;48.812;9.146;2023-05-15T10:47:27;3.10;;;2.90;;
7003;SDS011;3542;48.812;9.146;2023-05-15T10:49:54;3.60;;;2.67;;
7003;SDS011;3542;48.812;9.146;2023-05-15T10:52:20;2.57;;;2.37;;
7003;SDS011;3542;48.812;9.146;2023-05-15T10:54:45;4.43;;;2.07;;
7003;SDS011;3542;48.812;9.146;2023-05-15T10:57:12;2.67;;;2.43;;
7003;SDS011;3542;48.812;9.146;2023-05-15T10:59:38;2.20;;;1.90;;
7003;SDS011;3542;48.812;9.146;2023-05-15T11:02:18;2.17;;;2.07;;
7003;SDS011;3542;48.812;9.146;2023-05-15T11:05:00;3.80;;;2.50;;
7003;SDS011;3542;48.812;9.146;2023-05-15T11:07:27;14.67;;;2.93;;
7003;SDS011;3542;48.812;9.146;2023-05-15T11:09:53;2.40;;;2.30;;
7003;SDS011;3542;48.812;9.146;2023-05-15T11:12:20;3.07;;;2.50;;
7003;SDS011;3542;48.812;9.146;2023-05-15T11:17:24;2.53;;;2.33;;
7003;SDS011;3542;48.812;9.146;2023-05-15T11:22:16;3.23;;;2.93;;
7003;SDS011;3542;48.812;9.146;2023-05-15T11:27:27;2.60;;;2.50;;
7003;SDS011;3542;48.812;9.146;2023-05-15T11:35:18;2.50;;;2.23;;
7003;SDS011;3542;48.812;9.146;2023-05-15T11:38:30;4.03;;;2.30;;
7003;SDS011;3542;48.812;9.146;2023-05-15T11:40:43;2.43;;;2.23;;
7003;SDS011;3542;48.812;9.146;2023-05-15T11:43:23;2.77;;;2.67;;
7003;SDS011;3542;48.812;9.146;2023-05-15T11:45:51;2.57;;;2.40;;
7003;SDS011;3542;48.812;9.146;2023-05-15T11:48:22;3.40;;;3.10;;
7003;SDS011;3542;48.812;9.146;2023-05-15T11:50:48;2.43;;;2.33;;
7003;SDS011;3542;48.812;9.146;2023-05-15T11:53:17;3.40;;;2.67;;
7003;SDS011;3542;48.812;9.146;2023-05-15T11:55:44;2.60;;;2.50;;
7003;SDS011;3542;48.812;9.146;2023-05-15T11:58:14;3.33;;;3.03;;
7003;SDS011;3542;48.812;9.146;2023-05-15T12:00:41;3.13;;;2.93;;
7003;SDS011;3542;48.812;9.146;2023-05-15T12:03:13;2.93;;;2.77;;
7003;SDS011;3542;48.812;9.146;2023-05-15T12:05:46;7.40;;;2.67;;
7003;SDS011;3542;48.812;9.146;2023-05-15T12:08:11;5.77;;;3.90;;
7003;SDS011;3542;48.812;9.146;2023-05-15T12:10:40;8.60;;;3.40;;
7003;SDS011;3542;48.812;9.146;2023-05-15T12:13:07;7.57;;;3.70;;
7003;SDS011;3542;48.812;9.146;2023-05-15T12:15:35;3.27;;;3.07;;
7003;SDS011;3542;48.812;9.146;2023-05-15T12:18:06;4.70;;;3.03;;
7003;SDS011;3542;48.812;9.146;2023-05-15T12:20:33;4.40;;;2.80;;
7003;SDS011;3542;48.812;9.146;2023-05-15T12:23:03;5.37;;;2.70;;
7003;SDS011;3542;48.812;9.146;2023-05-15T12:25:30;4.00;;;3.20;;
7003;SDS011;3542;48.812;9.146;2023-05-15T12:28:03;3.03;;;2.83;;
7003;SDS011;3542;48.812;9.146;2023-05-15T12:30:30;3.37;;;3.07;;
7003;SDS011;3542;48.812;9.146;2023-05-15T12:33:03;2.60;;;2.50;;
7003;SDS011;3542;48.812;9.146;2023-05-15T12:35:33;2.63;;;2.43;;
7003;SDS011;3542;48.812;9.146;2023-05-15T12:38:03;2.90;;;2.60;;
7003;SDS011;3542;48.812;9.146;2023-05-15T12:40:32;3.53;;;3.27;;
7003;SDS011;3542;48.812;9.146;2023-05-15T12:42:58;5.63;;;2.90;;
7003;SDS011;3542;48.812;9.146;2023-05-15T12:45:28;2.37;;;2.27;;
7003;SDS011;3542;48.812;9.146;2023-05-15T12:47:57;5.47;;;3.43;;
7003;SDS011;3542;48.812;9.146;2023-05-15T12:50:22;3.97;;;2.90;;
7003;SDS011;3542;48.812;9.146;2023-05-15T12:52:50;5.83;;;3.10;;
7003;SDS011;3542;48.812;9.146;2023-05-15T12:55:17;2.77;;;2.60;;
7003;SDS011;3542;48.812;9.146;2023-05-15T12:57:47;3.17;;;2.87;;
7003;SDS011;3542;48.812;9.146;2023-05-15T13:00:13;3.27;;;3.07;;
7003;SDS011;3542;48.812;9.146;2023-05-15T13:02:43;3.03;;;2.73;;
7003;SDS011;3542;48.812;9.146;2023-05-15T13:05:09;3.47;;;3.17;;
7003;SDS011;3542;48.812;9.146;2023-05-15T13:07:35;2.97;;;2.80;;
7003;SDS011;3542;48.812;9.146;2023-05-15T13:10:05;2.90;;;2.33;;
7003;SDS011;3542;48.812;9.146;2023-05-15T13:12:35;3.13;;;3.03;;
7003;SDS011;3542;48.812;9.146;2023-05-15T13:15:02;3.23;;;3.03;;
7003;SDS011;3542;48.812;9.146;2023-05-15T13:17:29;3.43;;;3.13;;
7003;SDS011;3542;48.812;9.146;2023-05-15T13:19:55;3.80;;;3.40;;
7003;SDS011;3542;48.812;9.146;2023-05-15T13:22:20;3.60;;;3.30;;
7003;SDS011;3542;48.812;9.146;2023-05-15T13:24:47;4.13;;;3.83;;
7003;SDS011;3542;48.812;9.146;2023-05-15T13:27:12;9.63;;;3.57;;
7003;SDS011;3542;48.812;9.146;2023-05-15T13:29:38;4.10;;;3.70;;
7003;SDS011;3542;48.812;9.146;2023-05-15T13:32:04;3.93;;;3.67;;
7003;SDS011;3542;48.812;9.146;2023-05-15T13:34:30;3.43;;;3.27;;
7003;SDS011;3542;48.812;9.146;2023-05-15T13:36:56;4.37;;;4.17;;
7003;SDS011;3542;48.812;9.146;2023-05-15T13:39:21;4.27;;;3.60;;
7003;SDS011;3542;48.812;9.146;2023-05-15T13:41:47;4.13;;;3.83;;
7003;SDS011;3542;48.812;9.146;2023-05-15T13:44:12;4.30;;;4.00;;
7003;SDS011;3542;48.812;9.146;2023-05-15T13:46:39;5.67;;;4.37;;
7003;SDS011;3542;48.812;9.146;2023-05-15T13:49:04;6.50;;;4.27;;
7003;SDS011;3542;48.812;9.146;2023-05-15T13:51:30;3.67;;;3.47;;
7003;SDS011;3542;48.812;9.146;2023-05-15T13:53:55;4.97;;;4.57;;
7003;SDS011;3542;48.812;9.146;2023-05-15T13:56:21;4.90;;;4.40;;
7003;SDS011;3542;48.812;9.146;2023-05-15T13:58:46;4.93;;;4.03;;
7003;SDS011;3542;48.812;9.146;2023-05-15T14:01:12;4.40;;;4.03;;
7003;SDS011;3542;48.812;9.146;2023-05-15T14:03:37;3.27;;;3.13;;
7003;SDS011;3542;48.812;9.146;2023-05-15T14:06:03;3.67;;;3.47;;
7003;SDS011;3542;48.812;9.146;2023-05-15T14:08:28;4.13;;;3.93;;
7003;SDS011;3542;48.812;9.146;2023-05-15T14:10:54;4.80;;;4.37;;
7003;SDS011;3542;48.812;9.146;2023-05-15T14:13:21;4.30;;;4.00;;
7003;SDS011;3542;48.812;9.146;2023-05-15T14:15:48;4.70;;;4.40;;
7003;SDS011;3542;48.812;9.146;2023-05-15T14:18:13;3.57;;;3.37;;
7003;SDS011;3542;48.812;9.146;2023-05-15T14:20:39;5.13;;;3.83;;
7003;SDS011;3542;48.812;9.146;2023-05-15T14:23:04;4.10;;;3.80;;
7003;SDS011;3542;48.812;9.146;2023-05-15T14:25:30;3.97;;;3.77;;
7003;SDS011;3542;48.812;9.146;2023-05-15T14:27:55;4.93;;;4.50;;
7003;SDS011;3542;48.812;9.146;2023-05-15T14:30:21;4.37;;;4.00;;
7003;SDS011;3542;48.812;9.146;2023-05-15T14:32:47;5.70;;;4.30;;
7003;SDS011;3542;48.812;9.146;2023-05-15T14:35:12;5.10;;;3.93;;
7003;SDS011;3542;48.812;9.146;2023-05-15T14:37:38;5.10;;;4.57;;
7003;SDS011;3542;48.812;9.146;2023-05-15T14:40:03;4.10;;;3.80;;
7003;SDS011;3542;48.812;9.146;2023-05-15T14:42:34;3.97;;;3.67;;
7003;SDS011;3542;48.812;9.146;2023-05-15T14:45:00;4.30;;;4.00;;
7003;SDS011;3542;48.812;9.146;2023-05-15T14:47:25;4.00;;;3.70;;
7003;SDS011;3542;48.812;9.146;2023-05-15T14:49:52;5.30;;;3.90;;
7003;SDS011;3542;48.812;9.146;2023-05-15T14:52:17;4.60;;;4.10;;
7003;SDS011;3542;48.812;9.146;2023-05-15T14:54:43;3.93;;;3.73;;
7003;SDS011;3542;48.812;9.146;2023-05-15T14:57:08;4.47;;;3.40;;
7003;SDS011;3542;48.812;9.146;2023-05-15T14:59:34;4.43;;;4.07;;
7003;SDS011;3542;48.812;9.146;2023-05-15T15:01:59;4.30;;;4.00;;
7003;SDS011;3542;48.812;9.146;2023-05-15T15:04:25;8.20;;;3.57;;
7003;SDS011;3542;48.812;9.146;2023-05-15T15:06:52;4.03;;;3.73;;
7003;SDS011;3542;48.812;9.146;2023-05-15T15:09:20;5.83;;;4.37;;
7003;SDS011;3542;48.812;9.146;2023-05-15T15:11:46;4.40;;;3.83;;
7003;SDS011;3542;48.812;9.146;2023-05-15T15:14:12;3.20;;;3.00;;
7003;SDS011;3542;48.812;9.146;2023-05-15T15:16:38;3.27;;;3.07;;
7003;SDS011;3542;48.812;9.146;2023-05-15T15:19:03;4.13;;;3.17;;
7003;SDS011;3542;48.812;9.146;2023-05-15T15:21:29;3.07;;;2.87;;
7003;SDS011;3542;48.812;9.146;2023-05-15T15:23:55;3.37;;;3.17;;
7003;SDS011;3542;48.812;9.146;2023-05-15T15:26:21;2.80;;;2.60;;
7003;SDS011;3542;48.812;9.146;2023-05-15T15:28:46;4.83;;;3.67;;
7003;SDS011;3542;48.812;9.146;2023-05-15T15:31:12;3.47;;;3.33;;
7003;SDS011;3542;48.812;9.146;2023-05-15T15:33:38;3.20;;;2.97;;
7003;SDS011;3542;48.812;9.146;2023-05-15T15:36:03;2.87;;;2.67;;
7003;SDS011;3542;48.812;9.146;2023-05-15T15:38:29;3.70;;;3.40;;
7003;SDS011;3542;48.812;9.146;2023-05-15T15:40:55;4.40;;;4.10;;
7003;SDS011;3542;48.812;9.146;2023-05-15T15:43:20;5.00;;;4.60;;
7003;SDS011;3542;48.812;9.146;2023-05-15T15:45:46;7.10;;;6.40;;
7003;SDS011;3542;48.812;9.146;2023-05-15T15:48:11;7.47;;;6.80;;
7003;SDS011;3542;48.812;9.146;2023-05-15T15:50:37;7.17;;;6.50;;
7003;SDS011;3542;48.812;9.146;2023-05-15T15:53:02;8.37;;;7.67;;
7003;SDS011;3542;48.812;9.146;2023-05-15T15:55:28;7.63;;;6.90;;
7003;SDS011;3542;48.812;9.146;2023-05-15T15:57:53;8.57;;;7.60;;
7003;SDS011;3542;48.812;9.146;2023-05-15T16:00:19;6.53;;;6.00;;
7003;SDS011;3542;48.812;9.146;2023-05-15T16:02:44;6.53;;;5.00;;
7003;SDS011;3542;48.812;9.146;2023-05-15T16:05:10;6.13;;;5.53;;
7003;SDS011;3542;48.812;9.146;2023-05-15T16:07:35;7.40;;;5.20;;
7003;SDS011;3542;48.812;9.146;2023-05-15T16:10:04;6.83;;;6.23;;
7003;SDS011;3542;48.812;9.146;2023-05-15T16:12:31;7.73;;;5.90;;
7003;SDS011;3542;48.812;9.146;2023-05-15T16:14:57;6.27;;;5.67;;
7003;SDS011;3542;48.812;9.146;2023-05-15T16:17:22;8.50;;;7.70;;
7003;SDS011;3542;48.812;9.146;2023-05-15T16:19:49;8.30;;;7.53;;
7003;SDS011;3542;48.812;9.146;2023-05-15T16:22:14;7.60;;;6.90;;
7003;SDS011;3542;48.812;9.146;2023-05-15T16:24:44;8.63;;;6.90;;
7003;SDS011;3542;48.812;9.146;2023-05-15T16:27:09;7.90;;;7.10;;
7003;SDS011;3542;48.812;9.146;2023-05-15T16:29:35;7.00;;;6.30;;
7003;SDS011;3542;48.812;9.146;2023-05-15T16:32:00;6.30;;;5.83;;
7003;SDS011;3542;48.812;9.146;2023-05-15T16:34:28;6.07;;;5.57;;
7003;SDS011;3542;48.812;9.146;2023-05-15T16:36:53;5.90;;;5.40;;
7003;SDS011;3542;48.812;9.146;2023-05-15T16:39:19;5.20;;;4.70;;
7003;SDS011;3542;48.812;9.146;2023-05-15T16:41:45;6.90;;;4.67;;
7003;SDS011;3542;48.812;9.146;2023-05-15T16:44:10;4.13;;;3.83;;
7003;SDS011;3542;48.812;9.146;2023-05-15T16:46:36;4.07;;;3.70;;
7003;SDS011;3542;48.812;9.146;2023-05-15T16:49:02;4.00;;;3.70;;
7003;SDS011;3542;48.812;9.146;2023-05-15T16:51:28;3.50;;;3.30;;
7003;SDS011;3542;48.812;9.146;2023-05-15T16:53:54;3.67;;;3.03;;
7003;SDS011;3542;48.812;9.146;2023-05-15T16:56:22;5.57;;;4.27;;
7003;SDS011;3542;48.812;9.146;2023-05-15T16:58:48;2.90;;;2.70;;
7003;SDS011;3542;48.812;9.146;2023-05-15T17:01:14;4.03;;;2.97;;
7003;SDS011;3542;48.812;9.146;2023-05-15T17:03:40;7.10;;;3.00;;
7003;SDS011;3542;48.812;9.146;2023-05-15T17:06:06;3.37;;;3.00;;